Time;durP1;ratioP1;P1;durP2;ratioP2;P2;SDS_P1;SDS_P2;PMS_P1;PMS_P2;Temp;Humidity;BMP_temperature;BMP_pressure;BME280_temperature;BME280_humidity;BME280_pressure;Samples;Min_cycle;Max_cycle;Signal;HPM_P1;HPM_P2
2022/03/13 00:00:39;;;;;;;27.07;17.60;;;0.80;82.50;;;;;;1924705;74;21120;-47
2022/03/13 00:03:10;;;;;;;27.87;17.02;;;0.90;82.60;;;;;;1924784;74;21037;-48
2022/03/13 00:05:40;;;;;;;23.00;17.90;;;0.90;82.30;;;;;;1924672;74;21001;-46
2022/03/13 00:08:31;;;;;;;28.38;17.52;;;0.90;82.20;;;;;;1924713;74;21096;-47
2022/03/13 00:11:05;;;;;;;22.02;15.85;;;0.90;82.30;;;;;;1924725;74;20994;-47
2022/03/13 00:13:35;;;;;;;29.67;17.50;;;0.90;82.40;;;;;;1924593;73;21017;-48
2022/03/13 00:16:09;;;;;;;25.92;18.15;;;0.90;81.80;;;;;;1924618;74;21018;-47
2022/03/13 00:18:46;;;;;;;23.63;16.53;;;0.80;81.80;;;;;;1925012;74;21033;-48
2022/03/13 00:21:11;;;;;;;24.63;15.13;;;0.80;81.90;;;;;;1922562;73;21488;-48
2022/03/13 00:23:40;;;;;;;26.85;16.20;;;0.70;81.90;;;;;;1924743;74;21091;-47
2022/03/13 00:26:10;;;;;;;27.10;18.55;;;0.70;81.90;;;;;;1924569;74;21103;-46
2022/03/13 00:28:39;;;;;;;28.98;18.40;;;0.70;82.00;;;;;;1924624;74;21001;-48
2022/03/13 00:31:09;;;;;;;26.75;16.25;;;0.60;82.20;;;;;;1924734;74;21045;-47
2022/03/13 00:33:38;;;;;;;27.32;17.98;;;0.60;82.10;;;;;;1924538;74;21075;-47
2022/03/13 00:36:08;;;;;;;26.87;16.02;;;0.60;82.40;;;;;;1924695;74;21033;-48
2022/03/13 00:38:37;;;;;;;27.52;17.05;;;0.60;82.20;;;;;;1924623;74;21017;-47
2022/03/13 00:41:09;;;;;;;27.00;15.93;;;0.50;81.60;;;;;;1924744;74;21456;-47
2022/03/13 00:43:38;;;;;;;28.15;16.57;;;0.50;81.90;;;;;;1924612;74;21014;-47
2022/03/13 00:46:07;;;;;;;25.88;15.95;;;0.40;81.70;;;;;;1924526;74;21022;-47
2022/03/13 00:48:37;;;;;;;27.80;15.15;;;0.30;81.60;;;;;;1924725;74;21018;-47
2022/03/13 00:51:06;;;;;;;27.22;15.58;;;0.20;82.00;;;;;;1924578;73;21075;-46
2022/03/13 00:53:35;;;;;;;23.12;16.45;;;0.20;82.10;;;;;;1924574;74;21005;-47
2022/03/13 00:56:05;;;;;;;26.93;16.30;;;0.10;82.20;;;;;;1924592;74;21075;-47
2022/03/13 00:58:34;;;;;;;28.17;17.00;;;0.00;82.30;;;;;;1924674;74;21136;-47
2022/03/13 01:01:03;;;;;;;27.95;16.05;;;0.00;82.50;;;;;;1924677;74;21025;-48
2022/03/13 01:03:41;;;;;;;24.00;15.00;;;0.00;83.10;;;;;;1924712;73;21072;-47
2022/03/13 01:06:11;;;;;;;23.55;15.00;;;0.10;83.00;;;;;;1924676;74;21025;-47
2022/03/13 01:08:44;;;;;;;26.07;15.10;;;0.10;82.80;;;;;;1924603;74;21103;-47
2022/03/13 01:11:14;;;;;;;27.10;16.48;;;0.20;83.10;;;;;;1924675;74;21060;-46
2022/03/13 01:13:44;;;;;;;25.77;16.62;;;0.30;83.10;;;;;;1924591;74;21017;-47
2022/03/13 01:16:27;;;;;;;25.88;17.27;;;0.30;82.40;;;;;;1924679;74;21135;-46
2022/03/13 01:18:59;;;;;;;26.25;19.25;;;0.20;81.80;;;;;;1924734;74;21100;-47
2022/03/13 01:21:29;;;;;;;23.55;16.90;;;0.20;82.40;;;;;;1924571;74;21021;-47
2022/03/13 01:24:04;;;;;;;30.37;18.73;;;0.10;82.60;;;;;;1924623;74;21087;-48
2022/03/13 01:26:36;;;;;;;29.12;17.20;;;0.10;82.50;;;;;;1924684;74;21084;-47
2022/03/13 01:29:10;;;;;;;26.68;16.27;;;0.10;82.70;;;;;;1924655;74;20998;-47
2022/03/13 01:31:51;;;;;;;30.25;19.50;;;0.10;82.80;;;;;;1924286;74;21111;-47
2022/03/13 01:34:38;;;;;;;21.73;15.28;;;0.10;82.70;;;;;;1924684;74;21111;-48
2022/03/13 01:37:10;;;;;;;24.90;15.45;;;0.20;82.60;;;;;;1924572;74;21021;-46
2022/03/13 01:39:40;;;;;;;25.23;14.95;;;0.10;82.30;;;;;;1924614;74;21480;-47
2022/03/13 01:42:09;;;;;;;24.18;16.32;;;0.00;82.20;;;;;;1924616;73;21022;-47
2022/03/13 01:44:39;;;;;;;25.90;15.70;;;0.00;82.90;;;;;;1924655;73;21112;-49
2022/03/13 01:47:09;;;;;;;29.20;15.45;;;0.00;82.80;;;;;;1924649;74;21083;-47
2022/03/13 01:49:38;;;;;;;28.87;15.45;;;0.00;82.60;;;;;;1924576;74;21025;-48
2022/03/13 01:52:07;;;;;;;27.62;16.05;;;0.00;82.80;;;;;;1924570;74;21087;-47
2022/03/13 01:54:39;;;;;;;22.13;13.65;;;0.00;83.30;;;;;;1917942;74;21120;-47
2022/03/13 01:57:08;;;;;;;25.68;15.60;;;0.10;83.40;;;;;;1902049;75;21089;-47
2022/03/13 01:59:37;;;;;;;26.52;16.20;;;0.10;82.90;;;;;;1902103;75;21022;-48
2022/03/13 02:02:06;;;;;;;27.15;16.12;;;0.20;82.90;;;;;;1902081;75;21027;-47
2022/03/13 02:04:36;;;;;;;27.87;15.30;;;0.20;82.90;;;;;;1902262;75;21015;-47
2022/03/13 02:07:05;;;;;;;25.52;17.02;;;0.10;82.80;;;;;;1902192;75;21586;-47
2022/03/13 02:09:35;;;;;;;23.50;15.15;;;0.20;82.60;;;;;;1902143;74;21542;-48
2022/03/13 02:12:07;;;;;;;26.55;17.32;;;0.20;81.90;;;;;;1902321;75;21480;-47
2022/03/13 02:14:37;;;;;;;25.23;16.20;;;0.10;82.00;;;;;;1902178;75;21027;-47
2022/03/13 02:17:07;;;;;;;29.67;16.52;;;0.00;82.50;;;;;;1902273;75;21030;-47
2022/03/13 02:19:37;;;;;;;26.90;15.95;;;0.00;82.90;;;;;;1902142;75;21018;-47
2022/03/13 02:22:07;;;;;;;26.93;15.80;;;0.00;83.00;;;;;;1902168;75;21097;-46
2022/03/13 02:24:36;;;;;;;29.52;17.00;;;0.10;83.20;;;;;;1902100;75;21027;-47
2022/03/13 02:27:07;;;;;;;29.02;17.23;;;0.10;83.70;;;;;;1902216;75;21084;-48
2022/03/13 02:29:36;;;;;;;32.67;18.15;;;0.20;83.60;;;;;;1902214;75;21018;-47
2022/03/13 02:32:06;;;;;;;26.35;17.05;;;0.30;83.70;;;;;;1902153;75;21014;-47
2022/03/13 02:34:36;;;;;;;25.77;17.07;;;0.50;83.00;;;;;;1902013;75;21026;-47
2022/03/13 02:37:05;;;;;;;23.60;15.15;;;0.50;82.50;;;;;;1902184;74;21076;-47
2022/03/13 02:39:37;;;;;;;25.97;15.68;;;0.40;81.90;;;;;;1902106;75;21027;-47
2022/03/13 02:42:08;;;;;;;23.12;15.18;;;0.30;81.30;;;;;;1902326;75;21100;-47
2022/03/13 02:44:38;;;;;;;25.27;16.42;;;0.10;81.50;;;;;;1902207;75;21026;-46
2022/03/13 02:47:07;;;;;;;25.10;17.35;;;0.10;83.30;;;;;;1902135;75;21026;-47
2022/03/13 02:49:37;;;;;;;30.37;17.73;;;0.10;83.60;;;;;;1902216;75;21092;-48
2022/03/13 02:52:07;;;;;;;27.37;15.93;;;0.20;83.10;;;;;;1902284;75;21022;-47
2022/03/13 02:54:37;;;;;;;25.80;17.25;;;0.20;83.30;;;;;;1902595;74;20998;-47
2022/03/13 02:57:06;;;;;;;24.10;15.60;;;0.30;83.00;;;;;;1924757;74;21041;-47
2022/03/13 02:59:35;;;;;;;25.45;17.57;;;0.30;83.00;;;;;;1924795;74;21022;-47
2022/03/13 03:02:05;;;;;;;29.00;17.50;;;0.40;83.10;;;;;;1924788;74;21025;-47
2022/03/13 03:04:34;;;;;;;25.77;17.73;;;0.40;82.80;;;;;;1924736;74;21161;-47
2022/03/13 03:07:05;;;;;;;23.27;15.70;;;0.40;83.10;;;;;;1924702;74;21061;-48
2022/03/13 03:09:35;;;;;;;31.12;17.50;;;0.40;83.40;;;;;;1924266;74;21021;-47
2022/03/13 03:12:06;;;;;;;25.55;17.50;;;0.50;83.10;;;;;;1924618;74;21147;-47
2022/03/13 03:14:36;;;;;;;29.42;18.52;;;0.50;82.40;;;;;;1924550;74;20998;-47
2022/03/13 03:17:05;;;;;;;23.75;15.03;;;0.40;82.70;;;;;;1924698;74;21025;-47
2022/03/13 03:19:34;;;;;;;28.00;16.70;;;0.40;82.10;;;;;;1924650;74;21029;-48
2022/03/13 03:22:04;;;;;;;26.73;16.80;;;0.40;82.60;;;;;;1924742;73;21131;-48
2022/03/13 03:24:33;;;;;;;25.32;17.52;;;0.30;82.90;;;;;;1924737;74;21068;-47
2022/03/13 03:27:02;;;;;;;28.35;16.48;;;0.30;83.00;;;;;;1924747;74;21013;-47
2022/03/13 03:29:32;;;;;;;33.15;16.90;;;0.30;83.00;;;;;;1924724;74;21045;-47
2022/03/13 03:32:02;;;;;;;27.13;16.85;;;0.20;82.50;;;;;;1924629;74;21034;-47
2022/03/13 03:34:32;;;;;;;28.87;18.17;;;0.20;83.00;;;;;;1924676;74;21095;-47
2022/03/13 03:37:02;;;;;;;28.47;18.60;;;0.20;83.30;;;;;;1924638;74;21017;-48
2022/03/13 03:39:33;;;;;;;29.87;17.45;;;0.30;83.40;;;;;;1924733;74;21099;-48
2022/03/13 03:42:02;;;;;;;30.85;18.70;;;0.30;82.80;;;;;;1924748;74;21021;-48
2022/03/13 03:44:31;;;;;;;30.95;19.77;;;0.20;82.70;;;;;;1924630;74;21117;-48
2022/03/13 03:47:01;;;;;;;26.80;17.07;;;0.20;82.80;;;;;;1924712;74;21075;-47
2022/03/13 03:49:30;;;;;;;29.82;18.40;;;0.10;82.30;;;;;;1924598;73;21021;-47
2022/03/13 03:51:59;;;;;;;29.37;18.45;;;0.10;83.30;;;;;;1924744;74;21025;-47
2022/03/13 03:54:28;;;;;;;32.05;18.82;;;0.10;83.50;;;;;;1924669;74;21076;-48
2022/03/13 03:56:58;;;;;;;31.62;18.30;;;0.20;83.50;;;;;;1908357;74;21054;-48
2022/03/13 03:59:27;;;;;;;30.57;18.70;;;0.20;83.30;;;;;;1902191;75;21080;-47
2022/03/13 04:01:57;;;;;;;26.95;17.85;;;0.20;82.90;;;;;;1902121;74;21104;-47
2022/03/13 04:04:27;;;;;;;26.30;17.32;;;0.20;82.80;;;;;;1902206;75;21002;-47
2022/03/13 04:06:56;;;;;;;25.02;16.82;;;0.20;83.20;;;;;;1902083;75;21080;-48
2022/03/13 04:09:25;;;;;;;27.93;18.12;;;0.20;83.20;;;;;;1902182;75;21022;-47
2022/03/13 04:11:55;;;;;;;27.80;19.12;;;0.30;83.40;;;;;;1902093;75;21062;-47
2022/03/13 04:14:25;;;;;;;32.53;19.80;;;0.30;82.90;;;;;;1901989;75;21163;-48
2022/03/13 04:16:55;;;;;;;29.60;17.07;;;0.30;83.10;;;;;;1902217;75;21120;-48
2022/03/13 04:19:26;;;;;;;27.05;18.12;;;0.40;83.10;;;;;;1902064;75;21080;-48
2022/03/13 04:21:55;;;;;;;30.08;16.55;;;0.40;82.60;;;;;;1902162;75;21061;-47
2022/03/13 04:24:25;;;;;;;26.68;17.27;;;0.30;82.10;;;;;;1902089;75;21014;-48
2022/03/13 04:26:54;;;;;;;28.17;17.23;;;0.20;81.80;;;;;;1902129;75;21120;-47
2022/03/13 04:29:24;;;;;;;36.10;19.27;;;0.20;82.50;;;;;;1902171;75;21096;-48
2022/03/13 04:31:54;;;;;;;30.20;17.82;;;0.20;82.70;;;;;;1902142;75;21124;-48
2022/03/13 04:34:24;;;;;;;31.27;18.55;;;0.20;82.90;;;;;;1902134;75;21030;-48
2022/03/13 04:36:53;;;;;;;29.95;18.20;;;0.20;83.30;;;;;;1902171;74;21088;-47
2022/03/13 04:39:22;;;;;;;31.05;18.23;;;0.30;83.70;;;;;;1902015;75;21030;-49
2022/03/13 04:41:51;;;;;;;26.07;17.02;;;0.40;82.90;;;;;;1902102;75;21026;-48
2022/03/13 04:44:22;;;;;;;29.40;18.45;;;0.40;82.10;;;;;;1902189;74;21094;-48
2022/03/13 04:46:51;;;;;;;31.75;18.95;;;0.40;82.50;;;;;;1902172;75;20994;-47
2022/03/13 04:49:20;;;;;;;31.65;21.35;;;0.40;82.20;;;;;;1902161;75;21473;-49
2022/03/13 04:51:50;;;;;;;34.10;18.50;;;0.40;83.10;;;;;;1902157;75;21456;-49
2022/03/13 04:54:19;;;;;;;25.90;18.15;;;0.50;83.20;;;;;;1902063;74;21007;-48
2022/03/13 04:56:49;;;;;;;32.17;20.50;;;0.50;82.30;;;;;;1902159;74;21050;-48
2022/03/13 04:59:18;;;;;;;31.00;20.17;;;0.60;83.10;;;;;;1902052;75;21092;-48
2022/03/13 05:01:48;;;;;;;31.27;19.85;;;0.70;82.80;;;;;;1902093;75;21084;-48
2022/03/13 05:04:17;;;;;;;27.48;17.60;;;0.80;82.80;;;;;;1902069;75;21082;-47
2022/03/13 05:06:46;;;;;;;39.10;20.12;;;0.90;81.60;;;;;;1902130;74;21100;-48
2022/03/13 05:09:16;;;;;;;29.65;19.55;;;0.80;81.70;;;;;;1902124;74;21030;-48
2022/03/13 05:11:45;;;;;;;28.62;17.57;;;0.80;81.70;;;;;;1902026;75;21070;-47
2022/03/13 05:14:17;;;;;;;33.75;20.12;;;0.80;81.70;;;;;;1901656;75;21120;-47
2022/03/13 05:16:47;;;;;;;32.85;20.57;;;0.80;81.90;;;;;;1902140;75;21018;-47
2022/03/13 05:19:16;;;;;;;32.28;19.12;;;0.90;82.30;;;;;;1902140;75;21066;-47
2022/03/13 05:21:48;;;;;;;28.73;17.87;;;0.90;80.80;;;;;;1901924;75;21441;-48
2022/03/13 05:24:17;;;;;;;32.83;20.15;;;0.90;80.00;;;;;;1902100;75;20994;-48
2022/03/13 05:26:46;;;;;;;35.43;20.43;;;0.80;80.40;;;;;;1902105;75;21100;-49
2022/03/13 05:29:16;;;;;;;30.43;18.98;;;0.70;81.30;;;;;;1902033;74;21026;-47
2022/03/13 05:31:45;;;;;;;28.95;19.30;;;0.80;81.70;;;;;;1901967;75;21136;-49
2022/03/13 05:34:15;;;;;;;39.55;20.90;;;0.90;82.10;;;;;;1902116;75;21138;-47
2022/03/13 05:36:45;;;;;;;32.63;17.87;;;0.90;80.40;;;;;;1901991;75;21034;-48
2022/03/13 05:39:15;;;;;;;20.85;15.00;;;0.90;80.40;;;;;;1902027;75;21058;-48
2022/03/13 05:41:44;;;;;;;39.38;21.48;;;0.80;78.90;;;;;;1902061;75;21115;-49
2022/03/13 05:44:14;;;;;;;38.28;22.45;;;0.70;80.60;;;;;;1902119;75;21026;-48
2022/03/13 05:46:42;;;;;;;25.48;16.30;;;0.70;81.20;;;;;;1902107;75;21026;-49
2022/03/13 05:49:12;;;;;;;25.70;17.10;;;0.70;80.10;;;;;;1901999;75;21023;-51
2022/03/13 05:51:41;;;;;;;38.08;21.90;;;0.70;79.20;;;;;;1902212;75;21003;-49
2022/03/13 05:54:12;;;;;;;28.00;16.57;;;0.80;80.90;;;;;;1901993;75;21054;-48
2022/03/13 05:56:41;;;;;;;27.90;15.55;;;0.80;80.90;;;;;;1902036;74;21092;-48
2022/03/13 05:59:11;;;;;;;28.42;18.23;;;0.90;80.30;;;;;;1901979;74;21046;-48
2022/03/13 06:01:41;;;;;;;25.97;14.68;;;0.90;80.50;;;;;;1902000;75;21091;-48
2022/03/13 06:04:11;;;;;;;27.65;17.02;;;0.90;80.00;;;;;;1901990;75;20990;-53
2022/03/13 06:06:40;;;;;;;26.95;16.70;;;1.00;79.60;;;;;;1902055;75;21022;-52
2022/03/13 06:09:09;;;;;;;29.82;18.12;;;1.00;80.80;;;;;;1901968;75;21015;-52
2022/03/13 06:11:38;;;;;;;30.45;18.55;;;1.10;81.00;;;;;;1902062;75;21076;-50
2022/03/13 06:14:08;;;;;;;24.60;15.38;;;1.20;79.50;;;;;;1901969;75;21030;-49
2022/03/13 06:16:38;;;;;;;23.20;14.98;;;1.20;79.00;;;;;;1902068;75;21092;-48
2022/03/13 06:19:07;;;;;;;24.72;16.82;;;1.20;79.50;;;;;;1902096;75;21088;-49
2022/03/13 06:21:39;;;;;;;20.95;12.58;;;1.10;78.30;;;;;;1902085;75;21304;-49
2022/03/13 06:24:07;;;;;;;24.50;15.48;;;1.00;78.40;;;;;;1901949;75;21018;-48
2022/03/13 06:26:37;;;;;;;22.77;14.50;;;0.80;76.00;;;;;;1902037;74;21046;-47
2022/03/13 06:29:06;;;;;;;21.82;12.75;;;0.70;77.80;;;;;;1901995;75;21022;-48
2022/03/13 06:31:35;;;;;;;21.87;14.30;;;0.70;79.40;;;;;;1902000;75;21081;-49
2022/03/13 06:34:05;;;;;;;19.40;14.10;;;0.70;79.60;;;;;;1901987;75;21062;-48
2022/03/13 06:36:34;;;;;;;15.63;9.53;;;0.80;79.70;;;;;;1902086;75;21092;-49
2022/03/13 06:39:04;;;;;;;21.80;11.25;;;0.90;78.00;;;;;;1902068;75;21018;-49
2022/03/13 06:41:33;;;;;;;13.72;10.15;;;0.90;77.20;;;;;;1902075;75;21084;-48
2022/03/13 06:44:02;;;;;;;17.67;10.72;;;0.80;77.20;;;;;;1901950;74;21026;-48
2022/03/13 06:46:35;;;;;;;13.95;9.85;;;0.80;77.10;;;;;;1902032;74;21019;-48
2022/03/13 06:49:05;;;;;;;19.15;12.93;;;0.80;77.20;;;;;;1902076;75;21116;-48
2022/03/13 06:51:35;;;;;;;17.45;11.38;;;0.80;78.30;;;;;;1902186;75;21069;-50
2022/03/13 06:54:04;;;;;;;19.30;11.78;;;1.00;78.10;;;;;;1902119;75;21061;-49
2022/03/13 06:56:35;;;;;;;22.35;11.60;;;1.10;78.50;;;;;;1902032;75;21022;-49
2022/03/13 06:59:05;;;;;;;17.00;11.60;;;1.20;77.80;;;;;;1902145;74;21566;-48
2022/03/13 07:01:37;;;;;;;16.32;10.82;;;1.40;77.80;;;;;;1902078;75;21066;-48
2022/03/13 07:04:06;;;;;;;13.22;8.98;;;1.40;76.90;;;;;;1902124;75;21080;-49
2022/03/13 07:06:36;;;;;;;15.63;10.95;;;1.60;76.90;;;;;;1902062;75;21019;-48
2022/03/13 07:09:06;;;;;;;18.42;10.15;;;1.70;78.40;;;;;;1902076;75;21034;-48
2022/03/13 07:11:36;;;;;;;16.50;11.63;;;1.80;75.00;;;;;;1902081;75;21092;-48
2022/03/13 07:14:08;;;;;;;14.40;11.45;;;1.80;76.10;;;;;;1902018;74;21135;-49
2022/03/13 07:16:36;;;;;;;18.55;10.53;;;1.80;76.90;;;;;;1902032;75;21026;-48
2022/03/13 07:19:05;;;;;;;17.98;11.55;;;1.90;77.80;;;;;;1902166;75;21152;-48
2022/03/13 07:21:37;;;;;;;13.35;9.45;;;1.90;74.60;;;;;;1902176;75;21171;-48
2022/03/13 07:24:07;;;;;;;17.25;11.25;;;1.80;75.70;;;;;;1902039;75;21094;-48
2022/03/13 07:26:36;;;;;;;16.80;10.35;;;1.70;75.60;;;;;;1902054;75;21031;-48
2022/03/13 07:29:05;;;;;;;19.87;12.60;;;1.60;74.90;;;;;;1902082;75;21081;-48
2022/03/13 07:31:35;;;;;;;15.35;9.58;;;1.60;76.20;;;;;;1902011;74;21520;-47
2022/03/13 07:34:04;;;;;;;15.00;9.75;;;1.50;75.40;;;;;;1901953;75;21022;-49
2022/03/13 07:36:34;;;;;;;22.50;14.10;;;1.50;76.70;;;;;;1902081;75;21084;-48
2022/03/13 07:39:05;;;;;;;14.23;9.15;;;1.50;76.60;;;;;;1902052;75;21092;-48
2022/03/13 07:41:34;;;;;;;19.98;11.78;;;1.60;75.50;;;;;;1902177;75;21096;-48
2022/03/13 07:44:04;;;;;;;14.43;9.23;;;1.60;76.10;;;;;;1902074;75;21080;-48
2022/03/13 07:46:33;;;;;;;13.98;10.03;;;1.60;76.10;;;;;;1902066;74;21022;-49
2022/03/13 07:49:03;;;;;;;13.22;9.70;;;1.70;76.60;;;;;;1901957;75;21109;-48
2022/03/13 07:51:34;;;;;;;16.25;9.73;;;1.80;75.80;;;;;;1902039;75;21006;-48
2022/03/13 07:54:03;;;;;;;14.10;10.65;;;1.80;74.80;;;;;;1902074;75;21030;-47
2022/03/13 07:56:33;;;;;;;13.62;9.65;;;1.90;74.90;;;;;;1902051;75;21023;-47
2022/03/13 07:59:02;;;;;;;17.48;10.75;;;1.90;75.50;;;;;;1914616;74;21140;-48
2022/03/13 08:01:32;;;;;;;18.25;12.13;;;2.00;76.50;;;;;;1924571;74;21095;-48
2022/03/13 08:04:04;;;;;;;13.98;10.63;;;2.20;75.50;;;;;;1924690;74;21518;-48
2022/03/13 08:06:37;;;;;;;17.92;11.45;;;2.30;76.70;;;;;;1924786;74;21472;-48
2022/03/13 08:09:07;;;;;;;15.90;11.90;;;2.40;75.40;;;;;;1924921;74;21017;-48
2022/03/13 08:11:38;;;;;;;12.75;10.40;;;2.40;74.50;;;;;;1924602;74;21288;-49
2022/03/13 08:14:08;;;;;;;15.83;12.20;;;2.50;74.20;;;;;;1924479;73;21107;-48
2022/03/13 08:16:37;;;;;;;10.05;6.97;;;2.60;73.30;;;;;;1924682;74;20993;-47
2022/03/13 08:19:06;;;;;;;14.03;9.63;;;2.50;71.50;;;;;;1924601;74;21091;-49
2022/03/13 08:21:36;;;;;;;15.58;10.48;;;2.40;71.80;;;;;;1924582;74;21174;-48
2022/03/13 08:24:07;;;;;;;15.90;10.63;;;2.30;72.50;;;;;;1924460;74;21041;-48
2022/03/13 08:26:40;;;;;;;23.32;14.70;;;2.40;73.90;;;;;;1924614;74;21017;-49
2022/03/13 08:29:10;;;;;;;17.57;11.95;;;2.40;74.20;;;;;;1924495;73;21095;-48
2022/03/13 08:31:40;;;;;;;16.55;11.08;;;2.60;75.40;;;;;;1924545;74;21095;-48
2022/03/13 08:34:10;;;;;;;13.48;9.10;;;2.70;73.00;;;;;;1924490;74;21049;-48
2022/03/13 08:36:43;;;;;;;18.00;10.88;;;2.70;72.40;;;;;;1924523;74;21043;-48
2022/03/13 08:39:12;;;;;;;14.70;9.35;;;2.70;73.00;;;;;;1924770;74;21030;-48
2022/03/13 08:41:41;;;;;;;16.20;11.20;;;2.80;73.30;;;;;;1924635;74;21046;-48
2022/03/13 08:44:13;;;;;;;15.65;10.28;;;2.80;73.20;;;;;;1924586;74;21026;-47
2022/03/13 08:46:42;;;;;;;8.90;5.90;;;3.00;73.90;;;;;;1924837;73;21444;-48
2022/03/13 08:49:13;;;;;;;12.05;10.10;;;3.10;70.60;;;;;;1924508;74;21087;-49
2022/03/13 08:51:42;;;;;;;12.65;9.35;;;3.20;70.70;;;;;;1924606;74;20997;-49
2022/03/13 08:54:16;;;;;;;14.78;10.63;;;3.20;70.30;;;;;;1924628;73;21013;-48
2022/03/13 08:56:43;;;;;;;14.90;9.95;;;3.20;73.30;;;;;;1924150;74;21166;-48
2022/03/13 08:59:15;;;;;;;15.58;10.85;;;3.40;73.00;;;;;;1915549;74;21051;-48
2022/03/13 09:01:44;;;;;;;15.75;12.03;;;3.50;70.90;;;;;;1902073;75;21038;-48
2022/03/13 09:04:13;;;;;;;10.13;7.62;;;3.50;73.00;;;;;;1902170;75;21100;-48
2022/03/13 09:06:43;;;;;;;17.40;10.80;;;3.60;67.60;;;;;;1902038;75;21007;-48
2022/03/13 09:09:12;;;;;;;13.58;10.75;;;3.60;69.30;;;;;;1902077;75;21048;-48
2022/03/13 09:11:42;;;;;;;15.20;9.90;;;3.60;71.50;;;;;;1902095;75;20998;-48
2022/03/13 09:14:12;;;;;;;15.58;9.63;;;3.60;72.50;;;;;;1901955;74;21069;-50
2022/03/13 09:16:42;;;;;;;12.23;9.45;;;3.70;70.00;;;;;;1902105;75;21072;-49
2022/03/13 09:19:13;;;;;;;9.08;6.47;;;3.70;68.40;;;;;;1902116;75;21120;-49
2022/03/13 09:21:42;;;;;;;13.03;8.25;;;3.80;68.40;;;;;;1902011;75;21034;-49
2022/03/13 09:24:11;;;;;;;16.65;10.80;;;3.70;67.30;;;;;;1902032;75;21002;-48
2022/03/13 09:26:43;;;;;;;14.90;9.53;;;3.50;68.50;;;;;;1901628;75;21042;-49
2022/03/13 09:29:12;;;;;;;14.65;10.10;;;3.40;69.30;;;;;;1901924;74;21057;-48
2022/03/13 09:31:41;;;;;;;13.45;9.45;;;3.40;70.30;;;;;;1902030;74;21023;-47
2022/03/13 09:34:11;;;;;;;11.57;8.53;;;3.40;69.70;;;;;;1901725;75;21080;-48
2022/03/13 09:36:42;;;;;;;13.78;9.38;;;3.40;68.20;;;;;;1902294;75;21042;-47
2022/03/13 09:39:11;;;;;;;14.30;8.63;;;3.40;69.70;;;;;;1902105;75;21014;-48
2022/03/13 09:41:41;;;;;;;13.00;8.28;;;3.40;71.10;;;;;;1902206;75;21054;-48
2022/03/13 09:44:10;;;;;;;15.53;10.98;;;3.60;71.00;;;;;;1902196;75;21076;-48
2022/03/13 09:46:40;;;;;;;13.30;10.13;;;3.70;69.70;;;;;;1902112;75;21088;-48
2022/03/13 09:49:10;;;;;;;16.97;10.68;;;3.70;69.70;;;;;;1902156;75;21022;-48
2022/03/13 09:51:39;;;;;;;12.53;9.68;;;3.70;68.20;;;;;;1902128;75;21054;-49
2022/03/13 09:54:09;;;;;;;17.10;9.78;;;3.70;69.90;;;;;;1901948;75;21030;-49
2022/03/13 09:56:38;;;;;;;11.03;7.28;;;3.70;68.10;;;;;;1901997;75;21080;-48
2022/03/13 09:59:08;;;;;;;12.60;8.45;;;3.80;67.20;;;;;;1901899;74;21492;-47
2022/03/13 10:01:38;;;;;;;13.10;10.18;;;3.80;66.60;;;;;;1902059;75;21031;-47
2022/03/13 10:04:07;;;;;;;16.95;10.25;;;3.70;68.60;;;;;;1902183;75;21076;-50
2022/03/13 10:07:05;;;;;;;18.07;12.45;;;3.60;68.60;;;;;;1902080;75;21050;-48
2022/03/13 10:09:36;;;;;;;13.50;9.65;;;3.60;67.30;;;;;;1902035;75;21030;-48
2022/03/13 10:12:08;;;;;;;14.25;7.67;;;3.60;69.70;;;;;;1902074;74;21039;-48
2022/03/13 10:14:39;;;;;;;15.08;10.20;;;3.70;69.20;;;;;;1902290;75;21494;-49
2022/03/13 10:17:11;;;;;;;15.43;11.22;;;3.70;68.00;;;;;;1902006;74;21038;-48
2022/03/13 10:19:40;;;;;;;14.03;10.05;;;3.70;68.20;;;;;;1893901;75;21476;-49
2022/03/13 10:22:10;;;;;;;14.40;10.50;;;3.70;69.20;;;;;;1902109;75;21022;-51
2022/03/13 10:24:42;;;;;;;17.05;11.80;;;3.70;68.30;;;;;;1902138;75;21038;-48
2022/03/13 10:27:17;;;;;;;13.13;9.85;;;3.80;69.90;;;;;;1902287;75;21018;-48
2022/03/13 10:29:47;;;;;;;14.65;10.35;;;3.80;68.70;;;;;;1902321;75;21080;-48
2022/03/13 10:32:19;;;;;;;13.60;9.40;;;3.80;70.00;;;;;;1902172;75;21053;-48
2022/03/13 10:34:56;;;;;;;12.82;9.83;;;3.90;68.80;;;;;;1901987;74;20994;-47
2022/03/13 10:37:40;;;;;;;13.78;10.50;;;3.90;66.80;;;;;;1902140;75;21096;-48
2022/03/13 10:40:24;;;;;;;13.03;9.05;;;3.80;69.30;;;;;;1902149;75;21199;-48
2022/03/13 10:42:58;;;;;;;15.30;11.15;;;3.80;69.00;;;;;;1894487;75;21186;-48
2022/03/13 10:45:49;;;;;;;11.80;9.38;;;3.60;67.30;;;;;;1902150;75;21030;-48
2022/03/13 10:48:21;;;;;;;14.63;10.18;;;3.50;68.70;;;;;;1901301;74;21113;-48
2022/03/13 10:50:52;;;;;;;15.10;11.05;;;3.50;69.60;;;;;;1902183;75;21019;-48
2022/03/13 10:53:23;;;;;;;16.87;10.03;;;3.60;70.50;;;;;;1902192;75;20998;-48
2022/03/13 10:56:12;;;;;;;15.30;9.85;;;3.60;70.40;;;;;;1902212;74;21096;-50
2022/03/13 10:58:45;;;;;;;23.80;12.88;;;3.70;68.70;;;;;;1901707;75;21477;-47
2022/03/13 11:01:22;;;;;;;26.60;16.87;;;3.70;68.80;;;;;;1909967;74;21111;-49
2022/03/13 11:03:59;;;;;;;17.73;9.95;;;3.60;68.70;;;;;;1924730;74;21108;-48
2022/03/13 11:06:28;;;;;;;17.37;10.98;;;3.60;70.20;;;;;;1924673;74;21021;-47
2022/03/13 11:08:59;;;;;;;24.65;14.23;;;3.70;70.20;;;;;;1924546;74;21002;-48
2022/03/13 11:11:29;;;;;;;18.20;11.25;;;3.70;70.30;;;;;;1924615;74;21107;-47
2022/03/13 11:14:02;;;;;;;17.25;11.53;;;3.80;70.20;;;;;;1924529;74;21197;-49
2022/03/13 11:16:33;;;;;;;15.08;10.20;;;3.90;69.30;;;;;;1924797;74;21013;-48
2022/03/13 11:19:06;;;;;;;;;;;3.90;69.60;;;;;;1926487;74;21124;-48
2022/03/13 11:21:35;;;;;;;17.50;11.93;;;3.80;68.10;;;;;;1924765;74;20159;-48
2022/03/13 11:24:06;;;;;;;13.93;10.38;;;3.80;69.00;;;;;;1924565;74;21018;-49
2022/03/13 11:26:39;;;;;;;17.57;11.78;;;3.80;70.40;;;;;;1924744;74;21021;-48
2022/03/13 11:29:10;;;;;;;12.68;8.25;;;3.90;70.70;;;;;;1924355;74;21131;-49
2022/03/13 11:31:40;;;;;;;11.55;8.50;;;3.90;68.20;;;;;;1924646;74;21042;-49
2022/03/13 11:34:18;;;;;;;16.60;11.95;;;3.90;68.00;;;;;;1924527;73;21038;-48
2022/03/13 11:36:49;;;;;;;13.30;8.80;;;3.70;68.50;;;;;;1924907;74;21080;-47
2022/03/13 11:39:26;;;;;;;20.23;12.98;;;3.60;67.90;;;;;;1924772;74;21134;-47
2022/03/13 11:41:56;;;;;;;17.48;11.70;;;3.40;69.00;;;;;;1924612;74;21104;-48
2022/03/13 11:44:33;;;;;;;15.35;10.55;;;3.30;70.30;;;;;;1924512;74;21045;-48
2022/03/13 11:47:03;;;;;;;15.75;11.10;;;3.30;70.60;;;;;;1924612;74;21045;-48
2022/03/13 11:49:36;;;;;;;16.17;11.90;;;3.30;70.10;;;;;;1920927;74;21492;-48
2022/03/13 11:52:17;;;;;;;15.32;9.78;;;3.30;70.60;;;;;;1924654;74;21107;-49
2022/03/13 11:55:03;;;;;;;13.00;8.30;;;3.30;68.90;;;;;;1924693;74;21104;-48
2022/03/13 11:57:45;;;;;;;17.27;11.60;;;3.20;70.10;;;;;;1924482;73;21110;-48
2022/03/13 12:00:17;;;;;;;9.95;7.62;;;3.10;71.10;;;;;;1924582;74;20998;-48
2022/03/13 12:02:51;;;;;;;17.57;10.40;;;3.10;70.50;;;;;;1924623;73;21444;-48
2022/03/13 12:05:30;;;;;;;17.02;11.55;;;3.00;70.60;;;;;;1924694;74;21135;-48
2022/03/13 12:08:16;;;;;;;17.55;10.93;;;2.90;71.10;;;;;;1924677;74;21026;-48
2022/03/13 12:10:43;;;;;;;19.12;13.62;;;2.90;71.20;;;;;;1922147;74;21085;-48
2022/03/13 12:13:20;;;;;;;16.82;11.95;;;2.90;72.20;;;;;;1924740;74;21100;-48
2022/03/13 12:15:49;;;;;;;19.40;12.20;;;3.00;71.60;;;;;;1924712;73;21041;-48
2022/03/13 12:18:32;;;;;;;18.52;12.85;;;3.00;71.60;;;;;;1924652;74;21506;-47
2022/03/13 12:21:11;;;;;;;20.30;14.33;;;3.00;71.50;;;;;;1924662;74;21026;-48
2022/03/13 12:23:41;;;;;;;20.60;13.65;;;3.00;72.50;;;;;;1924640;74;21459;-49
2022/03/13 12:26:24;;;;;;;18.90;12.75;;;3.10;72.40;;;;;;1924677;74;21014;-49
2022/03/13 12:28:56;;;;;;;12.00;8.45;;;3.10;71.50;;;;;;1924064;74;21025;-48
2022/03/13 12:31:26;;;;;;;17.75;13.10;;;3.00;71.50;;;;;;1924664;74;21463;-48
2022/03/13 12:33:58;;;;;;;14.18;10.08;;;3.00;72.00;;;;;;1924512;74;21025;-48
2022/03/13 12:36:29;;;;;;;21.12;13.43;;;2.90;71.60;;;;;;1924691;74;21526;-48
2022/03/13 12:38:58;;;;;;;17.57;12.13;;;2.80;72.60;;;;;;1923546;74;21516;-48
2022/03/13 12:41:29;;;;;;;22.13;14.53;;;2.70;72.50;;;;;;1924574;74;21149;-48
2022/03/13 12:44:04;;;;;;;11.57;9.38;;;2.70;73.40;;;;;;1924519;73;21041;-49
2022/03/13 12:46:34;;;;;;;21.95;12.80;;;2.80;72.70;;;;;;1924584;74;21017;-47
2022/03/13 12:49:05;;;;;;;18.48;12.28;;;2.80;73.20;;;;;;1924502;74;21021;-48
2022/03/13 12:51:39;;;;;;;20.85;13.72;;;2.90;73.10;;;;;;1924647;74;21095;-48
2022/03/13 12:54:14;;;;;;;16.70;12.98;;;2.90;73.00;;;;;;1924622;74;21103;-48
2022/03/13 12:56:46;;;;;;;22.02;13.45;;;3.00;73.10;;;;;;1924525;73;21022;-49